sensor_id;sensor_type;location;lat;lon;timestamp;P1;durP1;ratioP1;P2;durP2;ratioP2
75009;SDS011;63564;46.840;18.336;2022-11-23T00:00:49;22.47;;;11.27;;
75009;SDS011;63564;46.840;18.336;2022-11-23T00:03:51;23.83;;;11.17;;
75009;SDS011;63564;46.840;18.336;2022-11-23T00:06:52;20.90;;;10.07;;
75009;SDS011;63564;46.840;18.336;2022-11-23T00:09:53;26.23;;;11.53;;
75009;SDS011;63564;46.840;18.336;2022-11-23T00:12:53;22.53;;;10.27;;
75009;SDS011;63564;46.840;18.336;2022-11-23T00:15:53;22.43;;;10.53;;
75009;SDS011;63564;46.840;18.336;2022-11-23T00:18:58;25.33;;;12.10;;
75009;SDS011;63564;46.840;18.336;2022-11-23T00:21:59;22.73;;;10.48;;
75009;SDS011;63564;46.840;18.336;2022-11-23T00:24:59;24.63;;;11.13;;
75009;SDS011;63564;46.840;18.336;2022-11-23T00:27:59;20.47;;;9.67;;
75009;SDS011;63564;46.840;18.336;2022-11-23T00:31:00;21.97;;;9.40;;
75009;SDS011;63564;46.840;18.336;2022-11-23T00:34:00;20.57;;;9.07;;
75009;SDS011;63564;46.840;18.336;2022-11-23T00:37:01;19.53;;;10.17;;
75009;SDS011;63564;46.840;18.336;2022-11-23T00:40:01;18.87;;;9.37;;
75009;SDS011;63564;46.840;18.336;2022-11-23T00:43:02;22.73;;;11.38;;
75009;SDS011;63564;46.840;18.336;2022-11-23T00:49:02;25.30;;;12.03;;
75009;SDS011;63564;46.840;18.336;2022-11-23T00:52:03;24.93;;;10.27;;
75009;SDS011;63564;46.840;18.336;2022-11-23T00:55:03;22.45;;;10.25;;
75009;SDS011;63564;46.840;18.336;2022-11-23T00:58:04;20.80;;;9.52;;
75009;SDS011;63564;46.840;18.336;2022-11-23T01:01:08;22.43;;;11.23;;
75009;SDS011;63564;46.840;18.336;2022-11-23T01:04:10;22.52;;;10.45;;
75009;SDS011;63564;46.840;18.336;2022-11-23T01:07:11;21.33;;;10.13;;
75009;SDS011;63564;46.840;18.336;2022-11-23T01:10:11;20.73;;;10.53;;
75009;SDS011;63564;46.840;18.336;2022-11-23T01:13:11;21.70;;;10.87;;
75009;SDS011;63564;46.840;18.336;2022-11-23T01:16:13;22.87;;;12.00;;
75009;SDS011;63564;46.840;18.336;2022-11-23T01:19:16;22.25;;;9.48;;
75009;SDS011;63564;46.840;18.336;2022-11-23T01:22:18;18.15;;;8.40;;
75009;SDS011;63564;46.840;18.336;2022-11-23T01:25:19;18.00;;;8.90;;
75009;SDS011;63564;46.840;18.336;2022-11-23T01:28:19;21.10;;;10.33;;
75009;SDS011;63564;46.840;18.336;2022-11-23T01:31:20;23.60;;;11.30;;
75009;SDS011;63564;46.840;18.336;2022-11-23T01:34:22;18.17;;;8.20;;
75009;SDS011;63564;46.840;18.336;2022-11-23T01:37:22;18.83;;;8.97;;
75009;SDS011;63564;46.840;18.336;2022-11-23T01:40:23;19.97;;;9.60;;
75009;SDS011;63564;46.840;18.336;2022-11-23T01:43:23;24.83;;;10.80;;
75009;SDS011;63564;46.840;18.336;2022-11-23T01:46:24;22.93;;;10.43;;
75009;SDS011;63564;46.840;18.336;2022-11-23T01:49:25;21.67;;;10.77;;
75009;SDS011;63564;46.840;18.336;2022-11-23T01:52:27;21.83;;;11.10;;
75009;SDS011;63564;46.840;18.336;2022-11-23T01:55:28;21.70;;;9.43;;
75009;SDS011;63564;46.840;18.336;2022-11-23T01:58:29;23.73;;;11.37;;
75009;SDS011;63564;46.840;18.336;2022-11-23T02:01:32;21.27;;;10.13;;
75009;SDS011;63564;46.840;18.336;2022-11-23T02:04:34;20.20;;;10.20;;
75009;SDS011;63564;46.840;18.336;2022-11-23T02:07:37;21.45;;;9.23;;
75009;SDS011;63564;46.840;18.336;2022-11-23T02:10:39;23.13;;;10.80;;
75009;SDS011;63564;46.840;18.336;2022-11-23T02:13:40;20.27;;;9.40;;
75009;SDS011;63564;46.840;18.336;2022-11-23T02:16:43;22.17;;;10.90;;
75009;SDS011;63564;46.840;18.336;2022-11-23T02:26:24;18.48;;;9.48;;
75009;SDS011;63564;46.840;18.336;2022-11-23T02:29:25;21.30;;;9.85;;
75009;SDS011;63564;46.840;18.336;2022-11-23T02:32:27;23.87;;;10.73;;
75009;SDS011;63564;46.840;18.336;2022-11-23T02:35:28;17.83;;;8.88;;
75009;SDS011;63564;46.840;18.336;2022-11-23T02:38:29;19.53;;;8.93;;
75009;SDS011;63564;46.840;18.336;2022-11-23T02:41:36;18.75;;;7.70;;
75009;SDS011;63564;46.840;18.336;2022-11-23T02:44:47;16.75;;;8.32;;
75009;SDS011;63564;46.840;18.336;2022-11-23T02:48:04;18.17;;;9.10;;
75009;SDS011;63564;46.840;18.336;2022-11-23T02:51:05;17.77;;;8.80;;
75009;SDS011;63564;46.840;18.336;2022-11-23T02:54:05;15.05;;;6.35;;
75009;SDS011;63564;46.840;18.336;2022-11-23T02:57:06;18.77;;;9.00;;
75009;SDS011;63564;46.840;18.336;2022-11-23T03:00:07;19.47;;;8.63;;
75009;SDS011;63564;46.840;18.336;2022-11-23T03:03:08;19.35;;;9.43;;
75009;SDS011;63564;46.840;18.336;2022-11-23T03:06:08;19.60;;;9.80;;
75009;SDS011;63564;46.840;18.336;2022-11-23T03:09:08;17.60;;;8.70;;
75009;SDS011;63564;46.840;18.336;2022-11-23T03:12:09;14.98;;;7.05;;
75009;SDS011;63564;46.840;18.336;2022-11-23T03:15:10;17.33;;;8.13;;
75009;SDS011;63564;46.840;18.336;2022-11-23T03:18:10;17.73;;;7.53;;
75009;SDS011;63564;46.840;18.336;2022-11-23T03:21:10;20.40;;;9.60;;
75009;SDS011;63564;46.840;18.336;2022-11-23T03:24:11;18.40;;;8.97;;
75009;SDS011;63564;46.840;18.336;2022-11-23T03:27:11;16.88;;;7.82;;
75009;SDS011;63564;46.840;18.336;2022-11-23T03:30:12;20.37;;;9.40;;
75009;SDS011;63564;46.840;18.336;2022-11-23T03:33:12;19.13;;;8.53;;
75009;SDS011;63564;46.840;18.336;2022-11-23T03:36:12;21.20;;;10.10;;
75009;SDS011;63564;46.840;18.336;2022-11-23T03:39:13;18.53;;;9.47;;
75009;SDS011;63564;46.840;18.336;2022-11-23T03:42:13;18.63;;;9.37;;
75009;SDS011;63564;46.840;18.336;2022-11-23T03:45:13;17.30;;;8.53;;
75009;SDS011;63564;46.840;18.336;2022-11-23T03:48:14;18.70;;;9.63;;
75009;SDS011;63564;46.840;18.336;2022-11-23T03:51:15;16.95;;;8.32;;
75009;SDS011;63564;46.840;18.336;2022-11-23T03:54:15;18.97;;;9.13;;
75009;SDS011;63564;46.840;18.336;2022-11-23T03:57:15;15.27;;;7.20;;
75009;SDS011;63564;46.840;18.336;2022-11-23T04:00:16;16.13;;;8.23;;
75009;SDS011;63564;46.840;18.336;2022-11-23T04:03:16;20.42;;;8.80;;
75009;SDS011;63564;46.840;18.336;2022-11-23T04:06:17;18.08;;;8.93;;
75009;SDS011;63564;46.840;18.336;2022-11-23T04:09:17;20.00;;;10.03;;
75009;SDS011;63564;46.840;18.336;2022-11-23T04:12:17;16.63;;;7.57;;
75009;SDS011;63564;46.840;18.336;2022-11-23T04:15:18;21.70;;;9.30;;
75009;SDS011;63564;46.840;18.336;2022-11-23T04:18:19;18.27;;;9.10;;
75009;SDS011;63564;46.840;18.336;2022-11-23T04:21:19;19.57;;;9.50;;
75009;SDS011;63564;46.840;18.336;2022-11-23T04:24:20;22.23;;;10.23;;
75009;SDS011;63564;46.840;18.336;2022-11-23T04:27:20;19.98;;;9.07;;
75009;SDS011;63564;46.840;18.336;2022-11-23T04:30:20;19.43;;;9.47;;
75009;SDS011;63564;46.840;18.336;2022-11-23T04:33:21;17.13;;;8.43;;
75009;SDS011;63564;46.840;18.336;2022-11-23T04:36:21;18.40;;;8.27;;
75009;SDS011;63564;46.840;18.336;2022-11-23T04:39:22;18.90;;;8.53;;
75009;SDS011;63564;46.840;18.336;2022-11-23T04:42:22;17.07;;;8.23;;
75009;SDS011;63564;46.840;18.336;2022-11-23T04:45:23;14.48;;;6.97;;
75009;SDS011;63564;46.840;18.336;2022-11-23T04:48:23;17.45;;;8.45;;
75009;SDS011;63564;46.840;18.336;2022-11-23T04:51:23;15.63;;;7.07;;
75009;SDS011;63564;46.840;18.336;2022-11-23T04:54:24;18.20;;;8.37;;
75009;SDS011;63564;46.840;18.336;2022-11-23T04:57:24;18.80;;;9.33;;
75009;SDS011;63564;46.840;18.336;2022-11-23T05:00:25;20.47;;;9.23;;
75009;SDS011;63564;46.840;18.336;2022-11-23T05:03:25;19.23;;;8.95;;
75009;SDS011;63564;46.840;18.336;2022-11-23T05:06:26;20.40;;;9.27;;
75009;SDS011;63564;46.840;18.336;2022-11-23T05:09:26;14.57;;;6.57;;
75009;SDS011;63564;46.840;18.336;2022-11-23T05:12:26;17.87;;;8.83;;
75009;SDS011;63564;46.840;18.336;2022-11-23T05:15:27;16.03;;;8.80;;
75009;SDS011;63564;46.840;18.336;2022-11-23T05:18:27;17.17;;;7.87;;
75009;SDS011;63564;46.840;18.336;2022-11-23T05:21:27;18.80;;;8.93;;
75009;SDS011;63564;46.840;18.336;2022-11-23T05:24:28;20.20;;;9.43;;
75009;SDS011;63564;46.840;18.336;2022-11-23T05:27:28;29.17;;;12.80;;
75009;SDS011;63564;46.840;18.336;2022-11-23T05:30:28;24.80;;;12.37;;
75009;SDS011;63564;46.840;18.336;2022-11-23T05:33:29;24.57;;;11.70;;
75009;SDS011;63564;46.840;18.336;2022-11-23T05:36:29;18.53;;;10.03;;
75009;SDS011;63564;46.840;18.336;2022-11-23T05:39:30;22.73;;;11.03;;
75009;SDS011;63564;46.840;18.336;2022-11-23T05:42:30;16.60;;;8.47;;
75009;SDS011;63564;46.840;18.336;2022-11-23T05:45:30;22.05;;;12.32;;
75009;SDS011;63564;46.840;18.336;2022-11-23T05:48:31;24.43;;;14.33;;
75009;SDS011;63564;46.840;18.336;2022-11-23T05:51:31;17.50;;;9.93;;
75009;SDS011;63564;46.840;18.336;2022-11-23T05:54:31;19.73;;;10.37;;
75009;SDS011;63564;46.840;18.336;2022-11-23T05:57:32;27.87;;;15.20;;
75009;SDS011;63564;46.840;18.336;2022-11-23T06:00:32;17.77;;;9.50;;
75009;SDS011;63564;46.840;18.336;2022-11-23T06:03:33;21.40;;;11.97;;
75009;SDS011;63564;46.840;18.336;2022-11-23T06:06:33;21.60;;;10.47;;
75009;SDS011;63564;46.840;18.336;2022-11-23T06:09:33;22.17;;;11.10;;
75009;SDS011;63564;46.840;18.336;2022-11-23T06:12:35;30.73;;;17.52;;
75009;SDS011;63564;46.840;18.336;2022-11-23T06:15:35;24.23;;;12.53;;
75009;SDS011;63564;46.840;18.336;2022-11-23T06:18:35;20.83;;;11.43;;
75009;SDS011;63564;46.840;18.336;2022-11-23T06:21:35;21.47;;;11.07;;
75009;SDS011;63564;46.840;18.336;2022-11-23T06:24:36;30.52;;;14.48;;
75009;SDS011;63564;46.840;18.336;2022-11-23T06:27:36;24.33;;;10.90;;
75009;SDS011;63564;46.840;18.336;2022-11-23T06:30:36;22.03;;;11.13;;
75009;SDS011;63564;46.840;18.336;2022-11-23T06:33:37;24.67;;;13.10;;
75009;SDS011;63564;46.840;18.336;2022-11-23T06:36:37;28.27;;;13.80;;
75009;SDS011;63564;46.840;18.336;2022-11-23T06:39:38;17.23;;;8.23;;
75009;SDS011;63564;46.840;18.336;2022-11-23T06:42:39;26.38;;;13.18;;
75009;SDS011;63564;46.840;18.336;2022-11-23T06:45:39;25.40;;;12.40;;
75009;SDS011;63564;46.840;18.336;2022-11-23T06:48:41;25.00;;;12.93;;
75009;SDS011;63564;46.840;18.336;2022-11-23T06:51:44;27.05;;;14.50;;
75009;SDS011;63564;46.840;18.336;2022-11-23T06:54:45;21.92;;;10.77;;
75009;SDS011;63564;46.840;18.336;2022-11-23T06:57:46;24.67;;;12.83;;
75009;SDS011;63564;46.840;18.336;2022-11-23T07:00:46;25.77;;;13.33;;
75009;SDS011;63564;46.840;18.336;2022-11-23T07:03:46;23.50;;;11.70;;
75009;SDS011;63564;46.840;18.336;2022-11-23T07:06:47;27.63;;;12.70;;
75009;SDS011;63564;46.840;18.336;2022-11-23T07:09:47;26.43;;;13.27;;
75009;SDS011;63564;46.840;18.336;2022-11-23T07:12:47;23.87;;;12.70;;
75009;SDS011;63564;46.840;18.336;2022-11-23T07:15:48;24.80;;;12.70;;
75009;SDS011;63564;46.840;18.336;2022-11-23T07:18:48;27.10;;;12.43;;
75009;SDS011;63564;46.840;18.336;2022-11-23T07:21:48;27.00;;;12.97;;
75009;SDS011;63564;46.840;18.336;2022-11-23T07:24:49;25.50;;;11.97;;
75009;SDS011;63564;46.840;18.336;2022-11-23T07:27:53;29.63;;;13.93;;
75009;SDS011;63564;46.840;18.336;2022-11-23T07:30:57;23.58;;;11.18;;
75009;SDS011;63564;46.840;18.336;2022-11-23T07:33:58;26.10;;;12.23;;
75009;SDS011;63564;46.840;18.336;2022-11-23T07:36:58;26.03;;;13.73;;
75009;SDS011;63564;46.840;18.336;2022-11-23T07:39:58;22.20;;;12.13;;
75009;SDS011;63564;46.840;18.336;2022-11-23T07:42:59;22.10;;;10.90;;
75009;SDS011;63564;46.840;18.336;2022-11-23T07:46:00;22.27;;;11.80;;
75009;SDS011;63564;46.840;18.336;2022-11-23T07:49:00;22.17;;;10.13;;
75009;SDS011;63564;46.840;18.336;2022-11-23T07:52:01;24.73;;;12.03;;
75009;SDS011;63564;46.840;18.336;2022-11-23T07:55:01;47.93;;;13.67;;
75009;SDS011;63564;46.840;18.336;2022-11-23T07:58:02;26.40;;;13.38;;
75009;SDS011;63564;46.840;18.336;2022-11-23T08:01:04;36.17;;;16.88;;
75009;SDS011;63564;46.840;18.336;2022-11-23T08:04:05;27.35;;;14.48;;
75009;SDS011;63564;46.840;18.336;2022-11-23T08:07:05;24.00;;;12.43;;
75009;SDS011;63564;46.840;18.336;2022-11-23T08:10:06;23.13;;;12.40;;
75009;SDS011;63564;46.840;18.336;2022-11-23T08:13:07;20.75;;;10.25;;
75009;SDS011;63564;46.840;18.336;2022-11-23T08:16:07;35.57;;;23.13;;
75009;SDS011;63564;46.840;18.336;2022-11-23T08:19:08;20.50;;;11.10;;
75009;SDS011;63564;46.840;18.336;2022-11-23T08:22:08;20.27;;;12.20;;
75009;SDS011;63564;46.840;18.336;2022-11-23T08:25:09;34.40;;;20.77;;
75009;SDS011;63564;46.840;18.336;2022-11-23T08:28:09;24.43;;;13.23;;
75009;SDS011;63564;46.840;18.336;2022-11-23T08:31:10;29.33;;;15.15;;
75009;SDS011;63564;46.840;18.336;2022-11-23T08:34:11;34.25;;;21.33;;
75009;SDS011;63564;46.840;18.336;2022-11-23T08:37:13;21.73;;;12.47;;
75009;SDS011;63564;46.840;18.336;2022-11-23T08:40:13;23.87;;;11.30;;
75009;SDS011;63564;46.840;18.336;2022-11-23T08:43:14;17.13;;;8.55;;
75009;SDS011;63564;46.840;18.336;2022-11-23T08:46:15;25.57;;;15.97;;
75009;SDS011;63564;46.840;18.336;2022-11-23T08:49:15;27.90;;;17.48;;
75009;SDS011;63564;46.840;18.336;2022-11-23T08:52:16;23.47;;;13.20;;
75009;SDS011;63564;46.840;18.336;2022-11-23T08:55:16;19.13;;;10.93;;
75009;SDS011;63564;46.840;18.336;2022-11-23T08:58:18;21.40;;;11.00;;
75009;SDS011;63564;46.840;18.336;2022-11-23T09:01:18;25.90;;;14.10;;
75009;SDS011;63564;46.840;18.336;2022-11-23T09:04:18;49.90;;;27.87;;
75009;SDS011;63564;46.840;18.336;2022-11-23T09:07:19;49.40;;;30.87;;
75009;SDS011;63564;46.840;18.336;2022-11-23T09:10:19;33.60;;;21.47;;
75009;SDS011;63564;46.840;18.336;2022-11-23T09:13:19;37.83;;;20.10;;
75009;SDS011;63564;46.840;18.336;2022-11-23T09:16:20;29.37;;;15.97;;
75009;SDS011;63564;46.840;18.336;2022-11-23T09:19:20;19.08;;;10.05;;
75009;SDS011;63564;46.840;18.336;2022-11-23T09:22:21;30.33;;;15.77;;
75009;SDS011;63564;46.840;18.336;2022-11-23T09:25:22;35.63;;;19.37;;
75009;SDS011;63564;46.840;18.336;2022-11-23T09:28:22;26.58;;;14.43;;
75009;SDS011;63564;46.840;18.336;2022-11-23T09:31:23;21.88;;;12.13;;
75009;SDS011;63564;46.840;18.336;2022-11-23T09:34:25;18.73;;;9.65;;
75009;SDS011;63564;46.840;18.336;2022-11-23T09:37:26;25.30;;;11.45;;
75009;SDS011;63564;46.840;18.336;2022-11-23T09:40:30;30.77;;;18.07;;
75009;SDS011;63564;46.840;18.336;2022-11-23T09:43:39;19.80;;;10.07;;
75009;SDS011;63564;46.840;18.336;2022-11-23T09:54:08;22.30;;;12.18;;
75009;SDS011;63564;46.840;18.336;2022-11-23T09:57:02;21.40;;;10.43;;
75009;SDS011;63564;46.840;18.336;2022-11-23T10:00:05;28.58;;;15.60;;
75009;SDS011;63564;46.840;18.336;2022-11-23T10:03:14;29.80;;;16.52;;
75009;SDS011;63564;46.840;18.336;2022-11-23T10:06:20;26.50;;;14.83;;
75009;SDS011;63564;46.840;18.336;2022-11-23T10:09:47;21.13;;;11.02;;
75009;SDS011;63564;46.840;18.336;2022-11-23T10:22:49;27.50;;;15.55;;
75009;SDS011;63564;46.840;18.336;2022-11-23T10:25:56;50.42;;;27.08;;
75009;SDS011;63564;46.840;18.336;2022-11-23T10:28:57;35.00;;;19.10;;
75009;SDS011;63564;46.840;18.336;2022-11-23T10:35:26;24.90;;;11.73;;
75009;SDS011;63564;46.840;18.336;2022-11-23T10:38:32;34.33;;;18.15;;
75009;SDS011;63564;46.840;18.336;2022-11-23T10:41:33;59.88;;;38.08;;
75009;SDS011;63564;46.840;18.336;2022-11-23T10:44:34;29.92;;;14.50;;
75009;SDS011;63564;46.840;18.336;2022-11-23T10:50:41;29.58;;;15.10;;
75009;SDS011;63564;46.840;18.336;2022-11-23T10:53:43;39.05;;;22.88;;
75009;SDS011;63564;46.840;18.336;2022-11-23T10:56:52;61.27;;;40.67;;
75009;SDS011;63564;46.840;18.336;2022-11-23T11:00:04;26.13;;;14.82;;
75009;SDS011;63564;46.840;18.336;2022-11-23T11:03:22;25.75;;;15.07;;
75009;SDS011;63564;46.840;18.336;2022-11-23T11:06:30;67.40;;;40.03;;
75009;SDS011;63564;46.840;18.336;2022-11-23T11:09:33;66.77;;;36.60;;
75009;SDS011;63564;46.840;18.336;2022-11-23T11:12:35;32.22;;;17.38;;
75009;SDS011;63564;46.840;18.336;2022-11-23T11:16:00;28.73;;;14.90;;
75009;SDS011;63564;46.840;18.336;2022-11-23T11:22:33;49.65;;;29.75;;
75009;SDS011;63564;46.840;18.336;2022-11-23T11:25:35;50.30;;;30.93;;
75009;SDS011;63564;46.840;18.336;2022-11-23T11:28:39;26.58;;;15.18;;
75009;SDS011;63564;46.840;18.336;2022-11-23T11:34:46;85.32;;;49.92;;
75009;SDS011;63564;46.840;18.336;2022-11-23T11:37:51;101.05;;;58.47;;
75009;SDS011;63564;46.840;18.336;2022-11-23T11:40:56;55.70;;;30.00;;
75009;SDS011;63564;46.840;18.336;2022-11-23T11:44:04;35.42;;;19.30;;
75009;SDS011;63564;46.840;18.336;2022-11-23T11:47:12;73.30;;;39.87;;
75009;SDS011;63564;46.840;18.336;2022-11-23T11:50:22;64.35;;;37.90;;
75009;SDS011;63564;46.840;18.336;2022-11-23T11:53:29;37.72;;;21.85;;
75009;SDS011;63564;46.840;18.336;2022-11-23T11:56:37;36.07;;;20.67;;
75009;SDS011;63564;46.840;18.336;2022-11-23T11:59:53;37.00;;;18.95;;
75009;SDS011;63564;46.840;18.336;2022-11-23T12:03:05;53.70;;;32.75;;
75009;SDS011;63564;46.840;18.336;2022-11-23T12:06:25;63.95;;;41.13;;
75009;SDS011;63564;46.840;18.336;2022-11-23T12:09:34;51.03;;;30.63;;
75009;SDS011;63564;46.840;18.336;2022-11-23T12:12:40;29.23;;;17.05;;
75009;SDS011;63564;46.840;18.336;2022-11-23T12:15:45;32.05;;;15.80;;
75009;SDS011;63564;46.840;18.336;2022-11-23T12:25:08;45.65;;;29.00;;
75009;SDS011;63564;46.840;18.336;2022-11-23T12:28:31;24.42;;;13.15;;
75009;SDS011;63564;46.840;18.336;2022-11-23T12:31:48;21.33;;;10.80;;
75009;SDS011;63564;46.840;18.336;2022-11-23T12:57:45;16.85;;;7.90;;
75009;SDS011;63564;46.840;18.336;2022-11-23T13:00:55;15.10;;;7.35;;
75009;SDS011;63564;46.840;18.336;2022-11-23T13:10:53;16.35;;;7.97;;
75009;SDS011;63564;46.840;18.336;2022-11-23T13:21:08;14.15;;;7.22;;
75009;SDS011;63564;46.840;18.336;2022-11-23T13:24:34;20.17;;;9.60;;
75009;SDS011;63564;46.840;18.336;2022-11-23T13:27:41;16.48;;;8.57;;
75009;SDS011;63564;46.840;18.336;2022-11-23T13:30:43;15.32;;;7.05;;
75009;SDS011;63564;46.840;18.336;2022-11-23T13:33:47;15.30;;;7.40;;
75009;SDS011;63564;46.840;18.336;2022-11-23T13:37:07;16.30;;;7.68;;
75009;SDS011;63564;46.840;18.336;2022-11-23T13:40:19;15.57;;;7.13;;
75009;SDS011;63564;46.840;18.336;2022-11-23T13:43:33;14.52;;;6.65;;
75009;SDS011;63564;46.840;18.336;2022-11-23T13:46:35;14.30;;;7.15;;
75009;SDS011;63564;46.840;18.336;2022-11-23T13:52:46;12.43;;;6.50;;
75009;SDS011;63564;46.840;18.336;2022-11-23T13:55:49;13.97;;;6.20;;
75009;SDS011;63564;46.840;18.336;2022-11-23T13:58:52;9.63;;;4.18;;
75009;SDS011;63564;46.840;18.336;2022-11-23T14:08:35;8.38;;;3.65;;
75009;SDS011;63564;46.840;18.336;2022-11-23T14:41:44;10.67;;;4.23;;
75009;SDS011;63564;46.840;18.336;2022-11-23T14:44:52;25.17;;;9.23;;
75009;SDS011;63564;46.840;18.336;2022-11-23T14:47:54;13.18;;;5.75;;
75009;SDS011;63564;46.840;18.336;2022-11-23T14:50:55;20.00;;;8.03;;
75009;SDS011;63564;46.840;18.336;2022-11-23T14:53:59;8.43;;;3.70;;
75009;SDS011;63564;46.840;18.336;2022-11-23T14:57:02;12.70;;;5.87;;
75009;SDS011;63564;46.840;18.336;2022-11-23T15:00:03;10.73;;;4.25;;
75009;SDS011;63564;46.840;18.336;2022-11-23T15:03:26;16.80;;;6.55;;
75009;SDS011;63564;46.840;18.336;2022-11-23T15:06:28;15.03;;;5.50;;
75009;SDS011;63564;46.840;18.336;2022-11-23T15:12:48;7.90;;;3.60;;
75009;SDS011;63564;46.840;18.336;2022-11-23T15:15:53;6.93;;;2.70;;
75009;SDS011;63564;46.840;18.336;2022-11-23T15:18:55;9.63;;;4.20;;
75009;SDS011;63564;46.840;18.336;2022-11-23T15:21:56;8.65;;;3.58;;
75009;SDS011;63564;46.840;18.336;2022-11-23T15:25:04;11.40;;;4.30;;
75009;SDS011;63564;46.840;18.336;2022-11-23T15:28:13;11.95;;;4.55;;
75009;SDS011;63564;46.840;18.336;2022-11-23T15:34:35;10.20;;;4.00;;
75009;SDS011;63564;46.840;18.336;2022-11-23T15:37:37;9.88;;;3.97;;
75009;SDS011;63564;46.840;18.336;2022-11-23T15:40:43;9.27;;;4.40;;
75009;SDS011;63564;46.840;18.336;2022-11-23T15:43:53;8.75;;;3.85;;
75009;SDS011;63564;46.840;18.336;2022-11-23T15:46:58;13.55;;;6.03;;
75009;SDS011;63564;46.840;18.336;2022-11-23T15:50:01;8.23;;;3.90;;
75009;SDS011;63564;46.840;18.336;2022-11-23T15:53:09;8.85;;;3.30;;
75009;SDS011;63564;46.840;18.336;2022-11-23T15:56:10;10.20;;;3.80;;
75009;SDS011;63564;46.840;18.336;2022-11-23T15:59:24;11.25;;;2.95;;
75009;SDS011;63564;46.840;18.336;2022-11-23T16:02:46;11.23;;;5.03;;
75009;SDS011;63564;46.840;18.336;2022-11-23T16:06:07;9.17;;;4.23;;
75009;SDS011;63564;46.840;18.336;2022-11-23T16:09:32;9.88;;;3.90;;
75009;SDS011;63564;46.840;18.336;2022-11-23T16:12:50;6.78;;;2.80;;
75009;SDS011;63564;46.840;18.336;2022-11-23T16:15:58;8.90;;;4.22;;
75009;SDS011;63564;46.840;18.336;2022-11-23T16:18:59;8.50;;;3.25;;
75009;SDS011;63564;46.840;18.336;2022-11-23T16:22:03;9.23;;;3.53;;
75009;SDS011;63564;46.840;18.336;2022-11-23T16:25:18;10.43;;;4.30;;
75009;SDS011;63564;46.840;18.336;2022-11-23T16:28:28;11.17;;;4.40;;
75009;SDS011;63564;46.840;18.336;2022-11-23T16:31:38;8.93;;;4.05;;
75009;SDS011;63564;46.840;18.336;2022-11-23T16:34:39;11.45;;;4.55;;
75009;SDS011;63564;46.840;18.336;2022-11-23T16:37:39;10.17;;;4.13;;
75009;SDS011;63564;46.840;18.336;2022-11-23T16:40:40;10.67;;;4.50;;
75009;SDS011;63564;46.840;18.336;2022-11-23T16:43:42;11.75;;;4.53;;
75009;SDS011;63564;46.840;18.336;2022-11-23T16:46:42;9.07;;;4.37;;
75009;SDS011;63564;46.840;18.336;2022-11-23T16:49:43;10.20;;;5.90;;
75009;SDS011;63564;46.840;18.336;2022-11-23T16:52:43;38.58;;;12.70;;
75009;SDS011;63564;46.840;18.336;2022-11-23T16:55:53;55.20;;;15.60;;
75009;SDS011;63564;46.840;18.336;2022-11-23T16:58:54;14.03;;;5.90;;
75009;SDS011;63564;46.840;18.336;2022-11-23T17:01:56;15.30;;;6.57;;
75009;SDS011;63564;46.840;18.336;2022-11-23T17:04:56;22.77;;;11.52;;
75009;SDS011;63564;46.840;18.336;2022-11-23T17:07:57;16.40;;;7.80;;
75009;SDS011;63564;46.840;18.336;2022-11-23T17:10:57;15.47;;;7.57;;
75009;SDS011;63564;46.840;18.336;2022-11-23T17:13:57;18.90;;;10.20;;
75009;SDS011;63564;46.840;18.336;2022-11-23T17:16:58;29.53;;;14.93;;
75009;SDS011;63564;46.840;18.336;2022-11-23T17:19:59;27.67;;;13.88;;
75009;SDS011;63564;46.840;18.336;2022-11-23T17:22:59;24.70;;;12.37;;
75009;SDS011;63564;46.840;18.336;2022-11-23T17:26:00;31.20;;;16.08;;
75009;SDS011;63564;46.840;18.336;2022-11-23T17:29:02;30.88;;;14.10;;
75009;SDS011;63564;46.840;18.336;2022-11-23T17:32:04;21.80;;;10.95;;
75009;SDS011;63564;46.840;18.336;2022-11-23T17:35:05;15.27;;;8.73;;
75009;SDS011;63564;46.840;18.336;2022-11-23T17:38:09;19.30;;;9.85;;
75009;SDS011;63564;46.840;18.336;2022-11-23T17:41:13;16.13;;;7.83;;
75009;SDS011;63564;46.840;18.336;2022-11-23T17:44:14;16.10;;;7.70;;
75009;SDS011;63564;46.840;18.336;2022-11-23T17:47:19;15.88;;;8.63;;
75009;SDS011;63564;46.840;18.336;2022-11-23T17:50:23;17.23;;;8.97;;
75009;SDS011;63564;46.840;18.336;2022-11-23T17:53:24;17.52;;;8.43;;
75009;SDS011;63564;46.840;18.336;2022-11-23T17:56:24;16.77;;;8.00;;
75009;SDS011;63564;46.840;18.336;2022-11-23T17:59:25;24.40;;;10.90;;
75009;SDS011;63564;46.840;18.336;2022-11-23T18:02:26;19.67;;;10.30;;
75009;SDS011;63564;46.840;18.336;2022-11-23T18:05:27;18.33;;;9.88;;
75009;SDS011;63564;46.840;18.336;2022-11-23T18:08:28;20.03;;;9.73;;
75009;SDS011;63564;46.840;18.336;2022-11-23T18:11:29;20.30;;;9.43;;
75009;SDS011;63564;46.840;18.336;2022-11-23T18:14:29;14.95;;;7.18;;
75009;SDS011;63564;46.840;18.336;2022-11-23T18:17:30;13.30;;;6.90;;
75009;SDS011;63564;46.840;18.336;2022-11-23T18:20:30;13.67;;;6.80;;
75009;SDS011;63564;46.840;18.336;2022-11-23T18:23:30;16.37;;;7.40;;
75009;SDS011;63564;46.840;18.336;2022-11-23T18:26:31;14.07;;;6.80;;
75009;SDS011;63564;46.840;18.336;2022-11-23T18:29:32;15.53;;;6.47;;
75009;SDS011;63564;46.840;18.336;2022-11-23T18:32:32;10.37;;;4.77;;
75009;SDS011;63564;46.840;18.336;2022-11-23T18:35:33;18.75;;;7.95;;
75009;SDS011;63564;46.840;18.336;2022-11-23T18:38:33;16.95;;;7.70;;
75009;SDS011;63564;46.840;18.336;2022-11-23T18:41:34;16.07;;;7.37;;
75009;SDS011;63564;46.840;18.336;2022-11-23T18:44:34;17.30;;;7.03;;
75009;SDS011;63564;46.840;18.336;2022-11-23T18:47:34;19.33;;;7.57;;
75009;SDS011;63564;46.840;18.336;2022-11-23T18:50:35;23.90;;;9.10;;
75009;SDS011;63564;46.840;18.336;2022-11-23T18:53:35;18.58;;;8.02;;
75009;SDS011;63564;46.840;18.336;2022-11-23T18:56:36;14.33;;;7.27;;
75009;SDS011;63564;46.840;18.336;2022-11-23T18:59:36;16.80;;;7.70;;
75009;SDS011;63564;46.840;18.336;2022-11-23T19:02:36;15.47;;;7.83;;
75009;SDS011;63564;46.840;18.336;2022-11-23T19:05:37;15.25;;;6.22;;
75009;SDS011;63564;46.840;18.336;2022-11-23T19:08:38;13.50;;;5.83;;
75009;SDS011;63564;46.840;18.336;2022-11-23T19:11:39;15.18;;;6.65;;
75009;SDS011;63564;46.840;18.336;2022-11-23T19:14:40;14.90;;;7.33;;
75009;SDS011;63564;46.840;18.336;2022-11-23T19:17:40;13.17;;;6.20;;
75009;SDS011;63564;46.840;18.336;2022-11-23T19:20:41;14.00;;;6.80;;
75009;SDS011;63564;46.840;18.336;2022-11-23T19:23:41;15.90;;;8.18;;
75009;SDS011;63564;46.840;18.336;2022-11-23T19:26:42;14.63;;;6.90;;
75009;SDS011;63564;46.840;18.336;2022-11-23T19:29:43;16.47;;;7.63;;
75009;SDS011;63564;46.840;18.336;2022-11-23T19:32:43;18.38;;;8.32;;
75009;SDS011;63564;46.840;18.336;2022-11-23T19:35:43;12.23;;;5.73;;
75009;SDS011;63564;46.840;18.336;2022-11-23T19:38:44;14.60;;;6.90;;
75009;SDS011;63564;46.840;18.336;2022-11-23T19:41:45;17.00;;;7.30;;
75009;SDS011;63564;46.840;18.336;2022-11-23T19:44:46;23.07;;;10.87;;
75009;SDS011;63564;46.840;18.336;2022-11-23T19:47:46;13.97;;;7.17;;
75009;SDS011;63564;46.840;18.336;2022-11-23T19:50:53;27.87;;;11.97;;